Time;durP1;ratioP1;P1;durP2;ratioP2;P2;SDS_P1;SDS_P2;PMS_P1;PMS_P2;Temp;Humidity;BMP_temperature;BMP_pressure;BME280_temperature;BME280_humidity;BME280_pressure;Samples;Min_cycle;Max_cycle;Signal;HPM_P1;HPM_P2
2022/03/29 00:00:18;;;;;;;27.17;14.70;;;11.10;63.10;;;;;;5035041;28;20475;-70
2022/03/29 00:02:46;;;;;;;24.67;14.37;;;11.00;63.30;;;;;;5036219;28;20448;-71
2022/03/29 00:05:14;;;;;;;22.57;13.30;;;11.00;63.40;;;;;;5036831;28;20549;-70
2022/03/29 00:07:42;;;;;;;21.40;13.90;;;10.90;63.40;;;;;;5035525;28;20471;-70
2022/03/29 00:10:11;;;;;;;18.17;12.43;;;10.90;63.50;;;;;;5035379;28;20933;-70
2022/03/29 00:12:39;;;;;;;20.07;13.33;;;10.90;63.50;;;;;;5035494;28;20455;-69
2022/03/29 00:15:10;;;;;;;20.37;12.87;;;10.90;63.60;;;;;;5030608;28;20487;-69
2022/03/29 00:17:38;;;;;;;22.80;13.33;;;10.80;63.70;;;;;;5035927;28;20448;-70
2022/03/29 00:20:08;;;;;;;21.43;13.57;;;10.80;63.70;;;;;;5038570;28;20455;-70
2022/03/29 00:22:36;;;;;;;22.13;13.23;;;10.80;63.80;;;;;;5035083;28;20447;-69
2022/03/29 00:25:05;;;;;;;27.83;14.90;;;10.80;63.90;;;;;;5035965;28;21075;-69
2022/03/29 00:27:35;;;;;;;19.50;12.00;;;10.80;63.90;;;;;;5040303;28;21019;-69
2022/03/29 00:30:04;;;;;;;19.93;11.97;;;10.80;63.90;;;;;;5036453;28;20452;-70
2022/03/29 00:32:33;;;;;;;22.63;12.67;;;10.80;63.90;;;;;;5037741;28;20460;-70
2022/03/29 00:35:02;;;;;;;22.80;13.30;;;10.70;64.00;;;;;;5037617;28;20541;-69
2022/03/29 00:37:30;;;;;;;23.37;13.70;;;10.70;64.00;;;;;;5042354;28;20566;-68
2022/03/29 00:39:58;;;;;;;24.83;15.33;;;10.80;64.20;;;;;;5036042;28;20479;-70
2022/03/29 00:42:26;;;;;;;25.43;13.50;;;10.80;64.30;;;;;;5038401;28;20479;-70
2022/03/29 00:44:56;;;;;;;23.80;13.90;;;10.80;64.30;;;;;;5032228;28;21330;-70
2022/03/29 00:47:25;;;;;;;52.10;29.53;;;10.90;64.30;;;;;;5035821;28;20536;-70
2022/03/29 00:49:54;;;;;;;28.20;16.10;;;10.90;64.20;;;;;;5034700;28;21197;-71
2022/03/29 00:52:23;;;;;;;22.57;13.77;;;10.90;64.30;;;;;;5035550;28;20471;-71
2022/03/29 00:54:51;;;;;;;21.30;11.93;;;10.90;64.30;;;;;;5037604;28;20804;-70
2022/03/29 00:57:19;;;;;;;24.23;14.87;;;10.90;64.40;;;;;;5035896;28;20863;-70
2022/03/29 00:59:48;;;;;;;22.73;14.90;;;10.90;64.40;;;;;;5039160;28;20477;-71
2022/03/29 01:02:16;;;;;;;20.73;12.47;;;10.90;64.40;;;;;;5036972;28;20487;-71
2022/03/29 01:04:44;;;;;;;26.40;17.37;;;10.90;64.30;;;;;;5039751;28;20493;-70
2022/03/29 01:07:13;;;;;;;40.63;21.50;;;10.90;64.40;;;;;;5036228;28;20467;-71
2022/03/29 01:09:41;;;;;;;27.77;17.77;;;10.90;64.40;;;;;;5034869;28;20463;-69
2022/03/29 01:12:10;;;;;;;29.23;16.83;;;11.00;64.50;;;;;;5036881;28;20478;-69
2022/03/29 01:14:39;;;;;;;27.33;17.67;;;11.00;64.40;;;;;;5032047;28;20460;-71
2022/03/29 01:19:54;;;;;;;24.40;15.57;;;11.00;64.40;;;;;;5039137;28;20946;-69
2022/03/29 01:22:23;;;;;;;62.90;34.63;;;10.90;64.40;;;;;;5036593;28;20454;-70
2022/03/29 01:24:53;;;;;;;78.53;36.53;;;10.90;64.40;;;;;;5039198;28;20545;-70
2022/03/29 01:27:22;;;;;;;46.80;23.00;;;10.90;64.40;;;;;;5034657;28;20484;-70
2022/03/29 01:29:56;;;;;;;26.60;14.43;;;10.80;64.40;;;;;;5033892;28;20445;-70
2022/03/29 01:32:27;;;;;;;22.27;13.93;;;10.80;64.50;;;;;;5027301;28;20487;-71
2022/03/29 01:34:56;;;;;;;19.80;12.30;;;10.80;64.50;;;;;;5035751;28;20498;-71
2022/03/29 01:37:26;;;;;;;23.07;13.00;;;10.70;64.50;;;;;;5038873;28;20463;-70
2022/03/29 01:39:54;;;;;;;33.83;16.13;;;10.70;64.70;;;;;;5035712;28;20952;-71
2022/03/29 01:42:22;;;;;;;26.70;14.97;;;10.70;64.80;;;;;;5038511;28;20452;-70
2022/03/29 01:44:50;;;;;;;34.37;18.70;;;10.70;64.80;;;;;;5032499;28;20816;-71
2022/03/29 01:47:21;;;;;;;28.27;15.43;;;10.70;64.90;;;;;;5034210;28;20610;-71
2022/03/29 01:49:50;;;;;;;20.80;14.10;;;10.80;64.90;;;;;;5033690;28;20488;-70
2022/03/29 01:52:19;;;;;;;22.67;14.80;;;10.80;64.90;;;;;;5015823;28;20456;-70
2022/03/29 01:54:49;;;;;;;23.20;14.80;;;10.80;64.90;;;;;;5036223;28;20756;-70
2022/03/29 01:57:17;;;;;;;24.63;14.93;;;10.80;64.90;;;;;;5037281;28;20467;-70
2022/03/29 02:02:31;;;;;;;23.50;12.07;;;10.80;64.80;;;;;;5031746;28;20463;-70
2022/03/29 02:04:59;;;;;;;20.77;12.97;;;10.70;64.80;;;;;;5036425;28;20537;-70
2022/03/29 02:07:27;;;;;;;21.37;13.70;;;10.70;64.80;;;;;;5034114;28;20470;-70
2022/03/29 02:09:56;;;;;;;21.90;13.20;;;10.60;64.90;;;;;;5032925;28;20476;-70
2022/03/29 02:12:24;;;;;;;21.57;13.23;;;10.60;65.10;;;;;;5034543;28;20467;-72
2022/03/29 02:14:52;;;;;;;18.57;12.70;;;10.60;65.00;;;;;;5031009;28;20459;-70
2022/03/29 02:17:20;;;;;;;20.23;13.30;;;10.60;65.00;;;;;;5035983;28;20483;-70
2022/03/29 02:19:48;;;;;;;23.43;15.53;;;10.50;65.20;;;;;;5038251;28;20464;-70
2022/03/29 02:22:16;;;;;;;24.10;14.70;;;10.60;65.30;;;;;;5035744;28;20982;-71
2022/03/29 02:24:44;;;;;;;21.30;13.33;;;10.60;65.30;;;;;;5036652;28;20863;-70
2022/03/29 02:27:13;;;;;;;19.57;12.30;;;10.60;65.30;;;;;;5037605;28;20460;-70
2022/03/29 02:29:41;;;;;;;20.90;12.10;;;10.60;65.30;;;;;;5035670;28;20490;-70
2022/03/29 02:32:10;;;;;;;22.40;11.57;;;10.50;65.30;;;;;;5034179;28;20495;-71
2022/03/29 02:34:38;;;;;;;28.00;13.37;;;10.50;65.40;;;;;;5014990;28;20478;-71
2022/03/29 02:37:06;;;;;;;21.43;12.60;;;10.50;65.40;;;;;;5035969;28;20489;-70
2022/03/29 02:39:34;;;;;;;23.03;13.13;;;10.50;65.50;;;;;;5035641;28;20504;-71
2022/03/29 02:42:01;;;;;;;23.00;14.27;;;10.50;65.40;;;;;;5037319;28;20470;-71
2022/03/29 02:44:32;;;;;;;24.40;15.10;;;10.50;65.40;;;;;;5037039;28;20462;-71
2022/03/29 02:47:00;;;;;;;25.17;15.17;;;10.50;65.50;;;;;;5035267;28;20490;-70
2022/03/29 02:49:28;;;;;;;23.43;14.70;;;10.40;65.50;;;;;;5035113;28;20482;-70
2022/03/29 02:51:56;;;;;;;29.87;15.67;;;10.40;65.60;;;;;;5037700;28;20482;-71
2022/03/29 02:54:24;;;;;;;19.63;14.20;;;10.40;65.60;;;;;;5042038;28;20443;-71
2022/03/29 02:56:52;;;;;;;22.40;13.00;;;10.40;65.60;;;;;;5031678;28;20483;-69
2022/03/29 02:59:20;;;;;;;22.97;14.30;;;10.30;65.60;;;;;;5040638;28;20459;-70
2022/03/29 03:01:50;;;;;;;26.77;16.50;;;10.30;65.70;;;;;;5037694;28;20460;-69
2022/03/29 03:04:18;;;;;;;24.17;14.40;;;10.30;65.70;;;;;;5040191;28;20977;-70
2022/03/29 03:06:46;;;;;;;27.83;19.63;;;10.20;65.70;;;;;;5039507;28;20476;-70
2022/03/29 03:09:14;;;;;;;22.97;15.60;;;10.20;65.70;;;;;;5044351;28;20487;-72
2022/03/29 03:11:43;;;;;;;29.93;16.60;;;10.10;65.80;;;;;;5039644;28;20975;-72
2022/03/29 03:14:11;;;;;;;27.00;14.83;;;10.10;65.90;;;;;;5041667;28;20458;-71
2022/03/29 03:16:39;;;;;;;24.50;15.80;;;10.10;66.00;;;;;;5038797;28;20895;-70
2022/03/29 03:19:28;;;;;;;24.13;16.03;;;10.20;66.00;;;;;;5040444;28;21206;-70
2022/03/29 03:21:56;;;;;;;26.20;17.40;;;10.10;66.00;;;;;;5041876;28;20467;-70
2022/03/29 03:24:24;;;;;;;26.40;17.07;;;10.10;66.00;;;;;;5042022;28;20791;-70
2022/03/29 03:26:52;;;;;;;28.63;17.03;;;10.20;66.10;;;;;;5025047;28;20479;-70
2022/03/29 03:29:20;;;;;;;26.30;17.10;;;10.20;66.20;;;;;;5039441;28;20475;-70
2022/03/29 03:31:48;;;;;;;25.57;16.50;;;10.20;66.20;;;;;;5040914;28;20471;-71
2022/03/29 03:34:16;;;;;;;30.40;16.60;;;10.20;66.10;;;;;;5039827;28;20464;-71
2022/03/29 03:36:46;;;;;;;29.20;17.17;;;10.20;66.00;;;;;;5037045;28;20485;-70
2022/03/29 03:39:14;;;;;;;22.93;14.87;;;10.10;66.00;;;;;;5037191;28;20961;-70
2022/03/29 03:41:42;;;;;;;24.30;16.70;;;10.10;66.20;;;;;;5041875;28;20470;-70
2022/03/29 03:44:11;;;;;;;30.03;17.43;;;10.10;66.20;;;;;;5019525;28;20455;-70
2022/03/29 03:46:39;;;;;;;26.30;17.60;;;10.10;66.20;;;;;;5038727;28;20567;-70
2022/03/29 03:49:08;;;;;;;24.63;16.80;;;10.10;66.10;;;;;;5036987;28;20479;-70
2022/03/29 03:51:36;;;;;;;26.00;16.63;;;10.00;66.20;;;;;;5035690;28;20910;-70
2022/03/29 03:54:05;;;;;;;25.00;15.83;;;10.00;66.20;;;;;;5037687;28;20463;-70
2022/03/29 03:56:33;;;;;;;23.07;15.47;;;10.00;66.30;;;;;;5038317;28;20483;-70
2022/03/29 03:59:01;;;;;;;22.67;15.03;;;10.00;66.30;;;;;;5036267;28;20471;-70
2022/03/29 04:01:29;;;;;;;20.90;12.63;;;10.00;66.30;;;;;;5036221;28;20479;-70
2022/03/29 04:03:57;;;;;;;20.93;13.10;;;10.00;66.20;;;;;;5037717;28;21114;-70
2022/03/29 04:06:25;;;;;;;20.33;12.80;;;9.90;66.20;;;;;;5040617;28;20481;-70
2022/03/29 04:08:53;;;;;;;18.00;13.23;;;9.80;66.20;;;;;;5037411;28;20459;-71
2022/03/29 04:11:22;;;;;;;24.00;12.80;;;9.70;66.30;;;;;;5040972;28;20454;-71
2022/03/29 04:13:50;;;;;;;20.07;12.57;;;9.60;66.40;;;;;;5036882;28;20452;-71
2022/03/29 04:16:19;;;;;;;24.20;15.53;;;9.60;66.60;;;;;;5037146;28;20479;-70
2022/03/29 04:18:47;;;;;;;27.50;15.13;;;9.60;66.60;;;;;;5015983;28;20539;-71
2022/03/29 04:21:15;;;;;;;25.23;15.50;;;9.60;66.60;;;;;;5038465;28;20459;-71
2022/03/29 04:23:43;;;;;;;24.70;15.00;;;9.50;66.60;;;;;;5036192;28;20460;-70
2022/03/29 04:26:11;;;;;;;24.10;15.10;;;9.50;66.70;;;;;;5038396;28;21128;-71
2022/03/29 04:28:41;;;;;;;20.30;14.43;;;9.50;66.70;;;;;;5040577;28;20456;-70
2022/03/29 04:31:09;;;;;;;27.77;15.43;;;9.50;66.70;;;;;;5038939;28;20996;-69
2022/03/29 04:33:38;;;;;;;24.57;14.10;;;9.40;66.70;;;;;;5037084;28;20479;-70
2022/03/29 04:36:07;;;;;;;22.33;14.77;;;9.40;66.80;;;;;;5037956;28;20479;-70
2022/03/29 04:38:35;;;;;;;21.40;13.43;;;9.30;66.80;;;;;;5035004;28;20460;-70
2022/03/29 04:41:04;;;;;;;25.67;16.27;;;9.30;66.90;;;;;;5038330;28;20455;-70
2022/03/29 04:43:32;;;;;;;51.43;28.43;;;9.30;67.00;;;;;;5036005;28;21118;-71
2022/03/29 04:46:02;;;;;;;24.30;15.30;;;9.30;67.00;;;;;;5036976;28;20551;-70
2022/03/29 04:48:30;;;;;;;22.10;14.07;;;9.30;67.20;;;;;;5033827;28;20498;-70
2022/03/29 04:50:58;;;;;;;23.83;15.13;;;9.20;67.20;;;;;;5030296;28;20471;-70
2022/03/29 04:53:26;;;;;;;23.20;14.30;;;9.20;67.20;;;;;;5034250;28;21158;-70
2022/03/29 04:55:55;;;;;;;22.07;15.50;;;9.20;67.40;;;;;;5034057;28;20494;-71
2022/03/29 04:58:24;;;;;;;27.40;16.00;;;9.20;67.50;;;;;;5037077;28;20455;-69
2022/03/29 05:00:52;;;;;;;20.27;13.10;;;9.20;67.60;;;;;;5038597;28;20472;-70
2022/03/29 05:03:22;;;;;;;21.40;13.50;;;9.20;67.60;;;;;;5032833;28;20467;-70
2022/03/29 05:05:50;;;;;;;31.43;15.07;;;9.20;67.60;;;;;;5038799;28;21326;-70
2022/03/29 05:08:18;;;;;;;25.90;14.73;;;9.20;67.60;;;;;;5037552;28;20452;-70
2022/03/29 05:10:46;;;;;;;21.67;14.80;;;9.20;67.70;;;;;;5035268;28;20479;-70
2022/03/29 05:13:15;;;;;;;24.90;14.87;;;9.20;67.70;;;;;;5033058;28;20467;-70
2022/03/29 05:15:43;;;;;;;21.00;13.87;;;9.20;67.80;;;;;;5034705;28;20480;-69
2022/03/29 05:18:12;;;;;;;24.70;14.60;;;9.20;67.80;;;;;;5034733;28;20440;-70
2022/03/29 05:20:41;;;;;;;29.70;16.17;;;9.20;67.80;;;;;;5035102;28;20456;-70
2022/03/29 05:23:10;;;;;;;22.67;14.50;;;9.20;68.00;;;;;;5033801;28;20890;-70
2022/03/29 05:25:38;;;;;;;23.03;13.77;;;9.20;67.90;;;;;;5036760;28;20498;-70
2022/03/29 05:28:09;;;;;;;27.87;14.70;;;9.20;68.00;;;;;;5035603;28;20459;-70
2022/03/29 05:30:37;;;;;;;42.77;24.00;;;9.20;68.00;;;;;;5039642;28;20491;-70
2022/03/29 05:33:05;;;;;;;81.43;38.13;;;9.20;68.00;;;;;;5039901;28;20463;-70
2022/03/29 05:35:33;;;;;;;51.47;26.77;;;9.20;68.10;;;;;;5040056;28;20487;-70
2022/03/29 05:38:04;;;;;;;33.80;19.87;;;9.20;68.20;;;;;;5036852;28;20200;-70
2022/03/29 05:40:32;;;;;;;37.07;20.03;;;9.30;68.30;;;;;;5039070;28;20455;-70
2022/03/29 05:43:00;;;;;;;37.10;18.83;;;9.30;68.30;;;;;;5035258;28;20448;-69
2022/03/29 05:45:29;;;;;;;33.03;20.30;;;9.30;68.40;;;;;;5033154;28;20497;-68
2022/03/29 05:50:42;;;;;;;27.57;16.10;;;9.40;68.40;;;;;;5036305;28;21500;-70
2022/03/29 05:53:11;;;;;;;28.30;18.50;;;9.40;68.40;;;;;;5036121;28;20474;-70
2022/03/29 05:55:40;;;;;;;32.07;19.70;;;9.50;68.50;;;;;;5033445;28;20480;-69
2022/03/29 05:58:08;;;;;;;35.80;22.20;;;9.50;68.50;;;;;;5032511;28;20451;-71
2022/03/29 06:00:35;;;;;;;30.43;20.93;;;9.50;68.50;;;;;;5032957;28;20487;-69
2022/03/29 06:03:04;;;;;;;33.33;21.30;;;9.50;68.60;;;;;;5034884;28;20444;-70
2022/03/29 06:05:34;;;;;;;30.30;21.20;;;9.50;68.70;;;;;;5036988;28;20470;-71
2022/03/29 06:08:02;;;;;;;34.60;20.33;;;9.50;68.80;;;;;;5033774;28;20485;-68
2022/03/29 06:10:31;;;;;;;26.70;17.10;;;9.50;68.90;;;;;;5035813;28;20494;-69
2022/03/29 06:12:59;;;;;;;30.43;19.33;;;9.50;68.90;;;;;;5034943;28;20531;-69
2022/03/29 06:15:27;;;;;;;27.63;19.20;;;9.50;69.00;;;;;;5033300;28;20487;-70
2022/03/29 06:17:55;;;;;;;32.17;20.60;;;9.50;69.00;;;;;;5039614;28;20443;-70
2022/03/29 06:20:25;;;;;;;30.40;20.33;;;9.50;69.10;;;;;;5035047;28;20445;-72
2022/03/29 06:22:53;;;;;;;33.33;24.67;;;9.60;69.10;;;;;;5035868;28;20451;-71
2022/03/29 06:25:21;;;;;;;37.03;23.40;;;9.60;69.20;;;;;;5037744;28;20498;-71
2022/03/29 06:27:51;;;;;;;39.40;23.07;;;9.60;69.20;;;;;;5035600;28;20687;-71
2022/03/29 06:30:19;;;;;;;34.00;22.10;;;9.70;69.30;;;;;;5036401;28;20448;-71
2022/03/29 06:32:48;;;;;;;33.30;21.60;;;9.70;69.30;;;;;;5035285;28;20458;-71
2022/03/29 06:35:19;;;;;;;34.97;22.37;;;9.80;69.40;;;;;;5038034;28;20776;-71
2022/03/29 06:37:47;;;;;;;32.43;21.33;;;9.80;69.50;;;;;;5035874;28;20455;-71
2022/03/29 06:40:15;;;;;;;36.30;22.83;;;9.90;69.60;;;;;;5035888;28;20447;-71
2022/03/29 06:42:43;;;;;;;35.30;22.97;;;10.00;69.60;;;;;;5035831;28;20516;-71
2022/03/29 06:45:12;;;;;;;34.73;21.40;;;10.00;69.70;;;;;;5035058;28;20482;-71
2022/03/29 06:47:41;;;;;;;30.33;20.40;;;10.00;69.80;;;;;;5030557;28;20474;-71
2022/03/29 06:50:10;;;;;;;29.43;18.80;;;10.10;69.80;;;;;;5036522;28;20482;-72
2022/03/29 06:52:40;;;;;;;29.27;18.73;;;10.20;69.90;;;;;;5036251;28;20467;-71
2022/03/29 06:55:10;;;;;;;30.47;19.10;;;10.20;69.90;;;;;;5033475;28;20464;-71
2022/03/29 06:57:38;;;;;;;24.83;16.37;;;10.20;70.00;;;;;;5033854;28;20500;-71
2022/03/29 07:00:09;;;;;;;24.40;15.83;;;10.30;70.10;;;;;;5035813;28;20936;-72
2022/03/29 07:02:39;;;;;;;23.70;16.50;;;10.40;70.20;;;;;;5031245;28;20482;-71
2022/03/29 07:05:08;;;;;;;23.87;15.30;;;10.40;70.20;;;;;;5031090;28;20534;-71
2022/03/29 07:07:36;;;;;;;24.23;16.00;;;10.40;70.30;;;;;;5036511;28;20830;-71
2022/03/29 07:12:52;;;;;;;25.30;16.73;;;10.50;70.40;;;;;;5033473;28;20494;-72
2022/03/29 07:15:20;;;;;;;23.30;15.47;;;10.60;70.40;;;;;;5029516;28;20468;-71
2022/03/29 07:17:50;;;;;;;23.27;15.87;;;10.70;70.50;;;;;;5038392;28;20447;-71
2022/03/29 07:20:19;;;;;;;23.33;16.13;;;10.70;70.50;;;;;;5034391;28;20454;-71
2022/03/29 07:22:48;;;;;;;28.77;15.03;;;10.80;70.60;;;;;;5035036;28;20454;-71
2022/03/29 07:25:18;;;;;;;21.50;15.00;;;10.80;70.60;;;;;;5035146;28;20466;-71
2022/03/29 07:27:46;;;;;;;23.80;15.00;;;10.90;70.60;;;;;;5034317;28;20467;-71
2022/03/29 07:30:14;;;;;;;23.83;15.67;;;10.90;70.70;;;;;;5039965;28;20465;-71
2022/03/29 07:32:44;;;;;;;26.63;15.80;;;11.00;70.70;;;;;;5034529;28;20492;-72
2022/03/29 07:35:14;;;;;;;24.00;14.80;;;11.00;70.80;;;;;;5034033;28;20479;-72
2022/03/29 07:37:42;;;;;;;25.13;15.13;;;11.10;70.80;;;;;;5020595;28;20513;-71
2022/03/29 07:40:13;;;;;;;24.43;15.93;;;11.20;70.80;;;;;;5039483;28;20459;-72
2022/03/29 07:42:41;;;;;;;20.73;14.50;;;11.20;70.80;;;;;;5036708;28;20837;-71
2022/03/29 07:45:11;;;;;;;24.30;16.07;;;11.30;70.70;;;;;;5036267;28;20509;-72
2022/03/29 07:47:41;;;;;;;22.20;14.70;;;11.30;70.70;;;;;;5037038;28;20480;-72
2022/03/29 07:50:32;;;;;;;21.90;14.77;;;11.40;70.70;;;;;;5040265;28;20463;-70
2022/03/29 07:53:03;;;;;;;21.80;14.33;;;11.50;70.70;;;;;;5028090;28;20487;-72
2022/03/29 07:55:31;;;;;;;21.33;13.80;;;11.50;70.60;;;;;;5041508;28;20486;-72
2022/03/29 07:58:13;;;;;;;25.40;18.03;;;11.60;70.60;;;;;;5041181;28;20451;-72
2022/03/29 08:00:41;;;;;;;27.80;15.63;;;11.70;70.60;;;;;;5039679;28;20480;-71
2022/03/29 08:03:12;;;;;;;22.00;14.43;;;11.70;70.60;;;;;;5033419;28;20459;-72
2022/03/29 08:05:43;;;;;;;25.20;15.40;;;11.80;70.60;;;;;;5038139;28;20561;-71
2022/03/29 08:08:13;;;;;;;26.50;16.10;;;11.90;70.50;;;;;;5041745;28;20462;-71
2022/03/29 08:10:42;;;;;;;24.40;16.43;;;11.90;70.40;;;;;;5037458;28;20550;-71
2022/03/29 08:13:11;;;;;;;27.00;15.70;;;12.00;70.40;;;;;;5033068;28;20468;-72
2022/03/29 08:15:40;;;;;;;27.93;16.23;;;12.10;70.30;;;;;;5031656;28;20490;-72
2022/03/29 08:18:09;;;;;;;27.20;16.00;;;12.10;70.20;;;;;;5017957;28;20929;-72
2022/03/29 08:20:38;;;;;;;29.13;16.30;;;12.20;70.20;;;;;;5036741;28;20459;-71
2022/03/29 08:23:08;;;;;;;40.13;22.47;;;12.20;70.20;;;;;;5031340;28;20871;-72
2022/03/29 08:25:38;;;;;;;35.00;21.00;;;12.30;70.10;;;;;;5036745;28;20867;-71
2022/03/29 08:28:07;;;;;;;41.60;24.50;;;12.30;70.00;;;;;;5039609;28;20459;-72
2022/03/29 08:30:36;;;;;;;40.70;24.40;;;12.40;69.90;;;;;;5036531;28;20467;-71
2022/03/29 08:33:04;;;;;;;49.30;27.93;;;12.40;69.90;;;;;;5022614;28;20932;-71
2022/03/29 08:35:34;;;;;;;38.57;23.70;;;12.40;69.90;;;;;;5039456;28;20471;-71
2022/03/29 08:38:02;;;;;;;48.30;27.53;;;12.50;69.90;;;;;;5037279;28;20573;-71
2022/03/29 08:40:56;;;;;;;39.67;23.73;;;12.60;69.90;;;;;;5037571;28;20463;-71
2022/03/29 08:43:27;;;;;;;47.23;24.90;;;12.60;69.80;;;;;;5035950;28;20428;-71
2022/03/29 08:45:56;;;;;;;46.27;24.17;;;12.70;69.80;;;;;;5034625;28;21261;-71
2022/03/29 08:48:25;;;;;;;36.03;21.93;;;12.70;69.70;;;;;;5036665;28;21025;-71
2022/03/29 08:50:55;;;;;;;37.23;22.23;;;12.80;69.60;;;;;;5037221;28;20860;-74
2022/03/29 08:53:45;;;;;;;41.83;23.87;;;12.90;69.60;;;;;;5035548;28;20478;-72
2022/03/29 08:56:14;;;;;;;45.87;23.60;;;13.00;69.40;;;;;;5040728;28;20657;-71
2022/03/29 08:58:42;;;;;;;36.70;22.60;;;13.00;69.30;;;;;;5039520;28;20467;-71
2022/03/29 09:01:10;;;;;;;40.27;23.30;;;13.10;69.30;;;;;;5021130;28;20482;-71
2022/03/29 09:03:38;;;;;;;37.27;21.87;;;13.20;69.30;;;;;;5038317;28;20439;-71
2022/03/29 09:06:08;;;;;;;35.10;21.13;;;13.20;69.20;;;;;;5035967;28;21056;-72
2022/03/29 09:08:43;;;;;;;50.37;25.80;;;13.30;69.00;;;;;;5040793;28;20520;-71
2022/03/29 09:11:12;;;;;;;42.57;24.30;;;13.40;68.90;;;;;;5036166;28;20458;-71
2022/03/29 09:13:42;;;;;;;41.63;23.87;;;13.40;68.80;;;;;;5036860;28;20490;-71
2022/03/29 09:16:29;;;;;;;38.00;21.33;;;13.50;68.70;;;;;;5036386;28;20534;-71
2022/03/29 09:18:57;;;;;;;41.13;21.93;;;13.60;68.70;;;;;;5035603;28;20459;-72
2022/03/29 09:21:26;;;;;;;42.17;22.03;;;13.60;68.60;;;;;;5035667;28;20459;-72
2022/03/29 09:24:08;;;;;;;39.87;22.50;;;13.70;68.40;;;;;;5018731;28;20910;-71
2022/03/29 09:26:39;;;;;;;33.80;22.10;;;13.70;68.30;;;;;;5039332;28;20556;-72
2022/03/29 09:29:19;;;;;;;41.77;22.67;;;13.70;68.20;;;;;;5035024;28;20459;-71
2022/03/29 09:31:50;;;;;;;42.43;22.83;;;13.70;68.30;;;;;;5031953;28;21008;-72
2022/03/29 09:34:21;;;;;;;37.93;23.17;;;13.80;68.20;;;;;;5039812;28;20593;-70
2022/03/29 09:36:51;;;;;;;41.37;23.13;;;13.80;68.10;;;;;;5047206;28;20477;-71
2022/03/29 09:39:35;;;;;;;34.97;23.27;;;13.80;68.10;;;;;;5045543;28;20458;-71
2022/03/29 09:42:05;;;;;;;42.00;23.67;;;13.90;68.10;;;;;;5036578;28;21309;-71
2022/03/29 09:44:41;;;;;;;40.83;22.93;;;13.90;68.10;;;;;;5020728;28;20499;-71
2022/03/29 09:47:11;;;;;;;45.47;25.17;;;14.00;68.10;;;;;;5033235;28;20488;-70
2022/03/29 09:50:01;;;;;;;39.43;23.70;;;14.10;68.10;;;;;;5034640;28;20548;-70
2022/03/29 09:52:30;;;;;;;46.33;25.47;;;14.10;67.80;;;;;;5035514;28;20566;-70
2022/03/29 09:55:21;;;;;;;47.67;28.40;;;14.10;67.50;;;;;;5039190;28;20456;-71
2022/03/29 09:57:52;;;;;;;49.77;28.20;;;14.20;67.30;;;;;;5032089;28;20507;-71
2022/03/29 10:00:36;;;;;;;63.13;27.77;;;14.20;67.40;;;;;;5035961;28;20454;-71
2022/03/29 10:03:08;;;;;;;43.77;27.17;;;14.30;67.40;;;;;;5033675;28;20804;-72
2022/03/29 10:05:40;;;;;;;48.13;29.23;;;14.30;67.30;;;;;;5035874;28;20471;-71
2022/03/29 10:11:03;;;;;;;46.70;28.30;;;14.40;67.10;;;;;;5035191;28;20459;-72
2022/03/29 10:13:31;;;;;;;55.20;31.53;;;14.40;67.10;;;;;;5039102;28;20482;-71
2022/03/29 10:16:02;;;;;;;51.17;31.70;;;14.40;67.00;;;;;;5034600;28;20472;-71
2022/03/29 10:18:31;;;;;;;45.27;28.73;;;14.40;66.70;;;;;;5036470;28;20509;-71
2022/03/29 10:21:00;;;;;;;43.53;28.10;;;14.40;66.70;;;;;;5035889;28;20462;-72
2022/03/29 10:23:29;;;;;;;50.60;27.57;;;14.50;66.50;;;;;;5036830;28;20446;-71
2022/03/29 10:25:57;;;;;;;52.40;29.87;;;14.50;66.60;;;;;;5035409;28;20471;-71
2022/03/29 10:28:26;;;;;;;51.03;27.07;;;14.50;66.60;;;;;;5038695;28;20451;-71
2022/03/29 10:30:54;;;;;;;41.27;26.00;;;14.60;66.60;;;;;;5034181;28;20466;-71
2022/03/29 10:33:26;;;;;;;44.00;27.80;;;14.60;66.60;;;;;;5034484;28;21032;-71
2022/03/29 10:36:06;;;;;;;46.57;27.77;;;14.60;66.40;;;;;;5017576;28;20495;-70
2022/03/29 10:38:57;;;;;;;46.43;26.60;;;14.70;66.40;;;;;;5031661;28;20459;-71
2022/03/29 10:41:51;;;;;;;42.43;26.57;;;14.80;66.30;;;;;;5036646;28;20459;-70
2022/03/29 10:44:19;;;;;;;41.07;24.90;;;14.80;66.20;;;;;;5032965;28;20444;-70
2022/03/29 10:46:50;;;;;;;47.40;25.30;;;14.90;66.10;;;;;;5031372;28;20570;-69
2022/03/29 10:49:24;;;;;;;45.27;27.57;;;14.90;65.90;;;;;;5030004;28;20457;-70
2022/03/29 10:51:54;;;;;;;44.57;25.97;;;15.00;65.90;;;;;;5027430;28;20460;-69
2022/03/29 10:54:30;;;;;;;40.70;25.80;;;15.00;65.90;;;;;;5038546;28;20483;-70
2022/03/29 10:57:00;;;;;;;39.97;24.90;;;15.10;65.50;;;;;;5037324;28;20489;-70
2022/03/29 10:59:29;;;;;;;41.63;27.13;;;15.00;65.50;;;;;;5034840;28;21213;-70
2022/03/29 11:02:11;;;;;;;46.00;27.80;;;15.00;65.50;;;;;;5014349;28;20489;-70
2022/03/29 11:05:03;;;;;;;48.50;27.20;;;15.00;65.30;;;;;;5033432;28;20509;-70
2022/03/29 11:07:31;;;;;;;46.33;25.90;;;15.10;65.20;;;;;;5038847;28;20451;-70
2022/03/29 11:10:12;;;;;;;44.43;27.40;;;15.10;65.10;;;;;;5037095;28;20456;-70
2022/03/29 11:12:43;;;;;;;41.17;24.97;;;15.10;65.10;;;;;;5035190;28;20455;-71
2022/03/29 11:15:42;;;;;;;46.73;27.03;;;15.20;65.00;;;;;;5036822;28;20513;-71
2022/03/29 11:18:38;;;;;;;45.77;27.50;;;15.20;64.90;;;;;;4992421;28;20486;-70
2022/03/29 11:21:09;;;;;;;45.77;26.53;;;15.30;64.80;;;;;;5034652;28;20466;-70
2022/03/29 11:23:40;;;;;;;42.37;27.40;;;15.30;64.70;;;;;;5036501;28;20478;-70
2022/03/29 11:26:10;;;;;;;43.47;26.57;;;15.30;64.40;;;;;;5036514;28;20494;-71
2022/03/29 11:28:46;;;;;;;44.13;25.77;;;15.30;64.50;;;;;;5039780;28;20591;-70
2022/03/29 11:31:14;;;;;;;57.50;28.53;;;15.30;64.40;;;;;;5038939;28;21029;-70
2022/03/29 11:33:45;;;;;;;37.53;24.60;;;15.40;64.50;;;;;;5037181;28;20565;-70
2022/03/29 11:36:14;;;;;;;43.20;25.07;;;15.40;64.40;;;;;;5033719;28;20567;-70
2022/03/29 11:38:44;;;;;;;40.57;26.20;;;15.50;64.40;;;;;;5042033;28;20812;-70
2022/03/29 11:41:21;;;;;;;43.90;25.87;;;15.50;64.50;;;;;;5038028;28;20466;-70
2022/03/29 11:43:58;;;;;;;45.07;26.33;;;15.60;64.10;;;;;;5035738;28;20455;-69
2022/03/29 11:46:43;;;;;;;47.10;27.17;;;15.70;64.00;;;;;;5038138;28;20483;-70
2022/03/29 11:49:11;;;;;;;43.00;27.57;;;15.70;63.80;;;;;;5034853;28;20450;-72
2022/03/29 11:51:40;;;;;;;41.50;26.93;;;15.70;63.40;;;;;;5039479;28;20455;-69
2022/03/29 11:54:08;;;;;;;38.70;25.03;;;15.70;63.70;;;;;;5039499;28;20494;-71
2022/03/29 11:56:38;;;;;;;45.23;26.20;;;15.70;63.60;;;;;;5038374;28;20550;-71
2022/03/29 11:59:14;;;;;;;43.00;26.53;;;15.70;63.40;;;;;;5034215;28;21001;-71
2022/03/29 12:01:42;;;;;;;51.63;28.83;;;15.80;63.40;;;;;;5036736;28;21269;-71
2022/03/29 12:04:12;;;;;;;43.50;25.53;;;15.80;63.20;;;;;;5033941;28;20451;-71
2022/03/29 12:06:49;;;;;;;46.13;25.80;;;15.80;63.20;;;;;;5039645;28;20510;-69
2022/03/29 12:09:23;;;;;;;44.97;27.00;;;15.80;63.20;;;;;;5038917;28;20452;-71
2022/03/29 12:11:55;;;;;;;42.57;27.07;;;15.90;63.20;;;;;;5037930;28;20543;-72
2022/03/29 12:14:24;;;;;;;43.93;26.73;;;15.90;63.10;;;;;;5025000;28;20475;-71
2022/03/29 12:16:54;;;;;;;45.83;26.57;;;16.00;63.10;;;;;;5035653;28;21036;-71
2022/03/29 12:19:25;;;;;;;47.37;29.50;;;16.00;62.80;;;;;;5038611;28;20545;-71
2022/03/29 12:21:59;;;;;;;59.03;31.47;;;16.10;62.60;;;;;;5040044;28;20506;-70
2022/03/29 12:24:30;;;;;;;45.57;28.10;;;16.10;62.60;;;;;;5039049;28;20447;-70
2022/03/29 12:27:04;;;;;;;40.40;25.50;;;16.10;62.50;;;;;;5040022;28;20528;-70
2022/03/29 12:29:34;;;;;;;44.60;25.40;;;16.10;62.30;;;;;;5037940;28;20545;-70
2022/03/29 12:32:05;;;;;;;45.60;27.33;;;16.10;62.30;;;;;;5037761;28;20472;-70
2022/03/29 12:34:34;;;;;;;39.43;26.30;;;16.10;62.20;;;;;;5035920;28;20474;-70
2022/03/29 12:37:05;;;;;;;40.17;24.97;;;16.10;62.10;;;;;;5037057;28;20474;-70
2022/03/29 12:39:34;;;;;;;47.30;26.77;;;16.20;62.00;;;;;;5037327;28;21274;-70
2022/03/29 12:42:02;;;;;;;42.50;25.57;;;16.20;61.90;;;;;;5038038;28;20451;-70
2022/03/29 12:44:34;;;;;;;41.40;24.83;;;16.20;61.80;;;;;;5041744;28;20630;-70
2022/03/29 12:47:04;;;;;;;45.80;27.03;;;16.30;61.60;;;;;;5036976;28;20491;-70
2022/03/29 12:49:33;;;;;;;43.23;25.77;;;16.30;61.50;;;;;;5041375;28;20463;-70
2022/03/29 12:52:05;;;;;;;47.37;26.67;;;16.30;61.10;;;;;;5041694;28;20464;-70
2022/03/29 12:54:34;;;;;;;42.00;27.47;;;16.30;61.20;;;;;;5037918;28;21114;-70
2022/03/29 12:57:04;;;;;;;37.23;24.73;;;16.30;61.20;;;;;;5043323;28;20480;-70